ADDS METAR Data INFO
IDs: Format: Raw Decoded Include TAF

Data at: 2110 UTC 19 Jul 2018

KMHV 192040Z AUTO 19007G15KT 10SM CLR 37/11 A3000 RMK A01
KMHV 192020Z AUTO 23008G14KT 200V270 10SM CLR 37/11 A3000 RMK A01
KMHV 192000Z AUTO 14009KT 10SM CLR 36/11 A3001 RMK A01
KMHV 191940Z AUTO 19009KT 10SM CLR 36/11 A3002 RMK A01
KMHV 191920Z AUTO VRB05G12KT 10SM CLR 35/11 A3003 RMK A01
KMHV 191900Z AUTO VRB03KT 10SM CLR 35/09 A3003 RMK A01
KMHV 191840Z AUTO 00000G11KT 10SM CLR 35/08 A3004 RMK A01
KMHV 191820Z AUTO 14006KT 10SM CLR 35/08 A3005 RMK A01
KMHV 191800Z AUTO VRB05KT 10SM CLR 35/07 A3005 RMK A01
KMHV 191740Z AUTO VRB03KT 10SM CLR 34/07 A3005 RMK A01
KMHV 191720Z AUTO VRB04KT 10SM CLR 33/06 A3005 RMK A01
KMHV 191700Z AUTO 09005KT 10SM CLR 32/06 A3005 RMK A01
KMHV 191640Z AUTO 07006KT 10SM CLR 31/08 A3005 RMK A01
KMHV 191620Z AUTO 06010KT 10SM CLR 31/09 A3005 RMK A01
KMHV 191600Z AUTO 07007G13KT 10SM CLR 31/08 A3005 RMK A01
KMHV 191540Z AUTO 08005KT 10SM CLR 31/08 A3004 RMK A01
KMHV 191520Z AUTO 07004KT 10SM CLR 30/07 A3004 RMK A01
KMHV 191500Z AUTO 00000KT 10SM CLR 30/06 A3003 RMK A01
KMHV 191440Z AUTO 00000KT 10SM CLR 30/06 A3003 RMK A01
KMHV 191420Z AUTO 00000KT 10SM CLR 28/06 A3003 RMK A01
KMHV 191400Z AUTO 35004KT 8SM CLR 27/06 A3003 RMK A01
KMHV 191340Z AUTO 34003KT 5SM HZ CLR 27/06 A3002 RMK A01
KMHV 191320Z AUTO 02003KT 9SM CLR 27/05 A3002 RMK A01
KMHV 191300Z AUTO 00000KT 10SM CLR 26/04 A3001 RMK A01
KMHV 191240Z AUTO 00000KT 10SM CLR 27/04 A3001 RMK A01
KMHV 191220Z AUTO 00000KT 10SM CLR 27/04 A3000 RMK A01
KMHV 191200Z AUTO 03004KT 10SM CLR 27/04 A3000 RMK A01
KMHV 191140Z AUTO 00000KT 10SM FEW044 FEW060 28/04 A2999 RMK A01
KMHV 191120Z AUTO 00000KT 10SM FEW035 FEW045 FEW060 29/04 A2999 RMK A01
KMHV 191100Z AUTO 00000KT 10SM SCT055 28/04 A2999 RMK A01
KMHV 191040Z AUTO 24004KT 10SM FEW050 SCT055 27/04 A2999 RMK A01
KMHV 191020Z AUTO 20004KT 10SM CLR 28/04 A2999 RMK A01
KMHV 191000Z AUTO 23006KT 10SM CLR 27/04 A2999 RMK A01
KMHV 190940Z AUTO 26007KT 10SM CLR 28/05 A2999 RMK A01
KMHV 190920Z AUTO 24008KT 10SM CLR 28/06 A2999 RMK A01
KMHV 190900Z AUTO 24010KT 10SM CLR 28/05 A3000 RMK A01
KMHV 190840Z AUTO 23012KT 10SM FEW050 FEW060 28/07 A3000 RMK A01
KMHV 190820Z AUTO 22012KT 10SM FEW049 FEW060 28/09 A3000 RMK A01
KMHV 190800Z AUTO 22011KT 10SM CLR 28/10 A3000 RMK A01
KMHV 190740Z AUTO 21011KT 10SM CLR 29/10 A3000 RMK A01
KMHV 190720Z AUTO 22012KT 10SM CLR 29/09 A3000 RMK A01
KMHV 190700Z AUTO 23009KT 10SM CLR 29/07 A3000 RMK A01
KMHV 190640Z AUTO 22012KT 10SM CLR 30/07 A3000 RMK A01
KMHV 190620Z AUTO 22013KT 10SM CLR 30/08 A3000 RMK A01
KMHV 190600Z AUTO 23012KT 10SM CLR 30/07 A3000 RMK A01
KMHV 190540Z AUTO 23014KT 10SM FEW055 31/05 A3000 RMK A01
KMHV 190520Z AUTO 22012KT 10SM CLR 31/05 A3000 RMK A01
KMHV 190500Z AUTO 20010KT 10SM CLR 32/06 A2999 RMK A01
KMHV 190440Z AUTO 22008KT 10SM CLR 32/06 A2999 RMK A01
KMHV 190420Z AUTO 24004G15KT 10SM CLR 32/06 A2998 RMK A01
KMHV 190400Z AUTO 28013G18KT 10SM FEW044 33/06 A2997 RMK A01
KMHV 190340Z AUTO 27011KT 10SM CLR 33/06 A2997 RMK A01
KMHV 190320Z AUTO 27011KT 10SM CLR 33/06 A2996 RMK A01
KMHV 190300Z AUTO 28012G19KT 10SM CLR 33/06 A2996 RMK A01
KMHV 190240Z AUTO 29014KT 10SM CLR 34/06 A2996 RMK A01
KMHV 190220Z AUTO 29014G19KT 10SM CLR 34/06 A2997 RMK A01
KMHV 190200Z AUTO 28012KT 10SM CLR 35/06 A2996 RMK A01
KMHV 190140Z AUTO 28012KT 10SM CLR 36/07 A2996 RMK A01
KMHV 190120Z AUTO 30014KT 10SM CLR 37/07 A2996 RMK A01
KMHV 190100Z AUTO 29011KT 10SM CLR 37/07 A2996 RMK A01
KMHV 190040Z AUTO 27009KT 10SM CLR 37/07 A2997 RMK A01
KMHV 190020Z AUTO 21013KT 10SM CLR 38/10 A2997 RMK A01
KMHV 190000Z AUTO 21013KT 10SM CLR 38/10 A2997 RMK A01
KMHV 182340Z AUTO 23013KT 10SM CLR 38/10 A2998 RMK A01
KMHV 182320Z AUTO 21009G18KT 10SM CLR 38/10 A2998 RMK A01
KMHV 182300Z AUTO 18009G16KT 10SM CLR 38/09 A2999 RMK A01
KMHV 182240Z AUTO 20009G18KT 10SM CLR 38/09 A2999 RMK A01
KMHV 182220Z AUTO 20008G14KT 10SM CLR 38/09 A3001 RMK A01
KMHV 182200Z AUTO VRB05G13KT 10SM CLR 37/08 A3001 RMK A01
KMHV 182140Z AUTO 19009G16KT 10SM CLR 38/09 A3002 RMK A01
KMHV 182120Z AUTO 21010G16KT 170V240 10SM CLR 38/08 A3003 RMK A01
KMHV 182100Z AUTO 24007G13KT 170V290 10SM CLR 37/07 A3003 RMK A01
KMHV 182040Z AUTO 23007G14KT 180V240 10SM CLR 37/07 A3004 RMK A01
KMHV 182020Z AUTO VRB04KT 10SM CLR 37/07 A3004 RMK A01
KMHV 182000Z AUTO 16005KT 10SM CLR 37/06 A3005 RMK A01
KMHV 181940Z AUTO VRB04KT 10SM CLR 37/07 A3005 RMK A01
KMHV 181920Z AUTO 00000KT 10SM CLR 36/07 A3006 RMK A01 LTG DSNT SW
KMHV 181900Z AUTO 06004KT 10SM CLR 35/07 A3007 RMK A01
KMHV 181840Z AUTO 24004KT 10SM CLR 35/07 A3007 RMK A01
KMHV 181820Z AUTO VRB03KT 10SM CLR 33/07 A3008 RMK A01
KMHV 181800Z AUTO 10005KT 10SM CLR 32/07 A3008 RMK A01
KMHV 181740Z AUTO 10006KT 10SM CLR 32/08 A3008 RMK A01
KMHV 181720Z AUTO 11006KT 10SM CLR 31/08 A3007 RMK A01
KMHV 181700Z AUTO 10005KT 10SM CLR 32/08 A3006 RMK A01
KMHV 181640Z AUTO 00000KT 10SM CLR 31/08 A3006 RMK A01
KMHV 181620Z AUTO 00000KT 10SM CLR 30/08 A3006 RMK A01
KMHV 181600Z AUTO 13003KT 10SM CLR 30/08 A3006 RMK A01
KMHV 181540Z AUTO 00000KT 10SM CLR 29/08 A3006 RMK A01
KMHV 181520Z AUTO 15005KT 10SM CLR 28/08 A3006 RMK A01
KMHV 181500Z AUTO 13005KT 10SM CLR 28/08 A3006 RMK A01
KMHV 181440Z AUTO 17006KT 7SM CLR 28/08 A3006 RMK A01
KMHV 181420Z AUTO 35004KT 9SM CLR 28/07 A3005 RMK A01
KMHV 181400Z AUTO 31005KT 9SM CLR 29/09 A3004 RMK A01
KMHV 181340Z AUTO 00000KT 9SM CLR 28/09 A3005 RMK A01
KMHV 181320Z AUTO 00000KT 9SM CLR 29/09 A3005 RMK A01
KMHV 181300Z AUTO 04005KT 9SM CLR 28/08 A3003 RMK A01
KMHV 181240Z AUTO 35008KT 10SM CLR 28/07 A3003 RMK A01
KMHV 181220Z AUTO 01005KT 10SM CLR 28/07 A3002 RMK A01
KMHV 181200Z AUTO 32008KT 10SM CLR 29/09 A3002 RMK A01
KMHV 181140Z AUTO 34008KT 10SM CLR 29/07 A3001 RMK A01
KMHV 181120Z AUTO 32009G17KT 10SM CLR 29/09 A3001 RMK A01
KMHV 181100Z AUTO 31010KT 10SM CLR 29/09 A3000 RMK A01
KMHV 181040Z AUTO VRB06KT 10SM CLR 30/07 A3000 RMK A01
KMHV 181020Z AUTO VRB04G10KT 10SM CLR 30/06 A3000 RMK A01
KMHV 181000Z AUTO 34008KT 10SM CLR 30/07 A3000 RMK A01
KMHV 180940Z AUTO 30008KT 10SM CLR 30/06 A2999 RMK A01
KMHV 180920Z AUTO 32016G21KT 10SM CLR 30/06 A2999 RMK A01